Time;durP1;ratioP1;P1;durP2;ratioP2;P2;SDS_P1;SDS_P2;PMS_P1;PMS_P2;Temp;Humidity;BMP_temperature;BMP_pressure;BME280_temperature;BME280_humidity;BME280_pressure;Samples;Min_cycle;Max_cycle;Signal;HPM_P1;HPM_P2
2022/07/11 00:03:45;;;;;;;3.30;1.50;;;16.80;99.90;;;;;;7353829;32;20111;-61
2022/07/11 00:07:48;;;;;;;3.20;1.98;;;16.80;99.90;;;;;;7360482;32;20103;-61
2022/07/11 00:11:50;;;;;;;6.12;1.90;;;16.70;99.90;;;;;;7360434;32;20147;-61
2022/07/11 00:15:52;;;;;;;6.30;1.85;;;16.60;99.90;;;;;;7361403;32;20129;-61
2022/07/11 00:19:54;;;;;;;3.17;1.90;;;16.60;99.90;;;;;;7359890;32;20263;-61
2022/07/11 00:23:56;;;;;;;4.93;1.95;;;16.60;99.90;;;;;;7359901;32;20122;-60
2022/07/11 00:27:58;;;;;;;4.30;1.85;;;16.50;99.90;;;;;;7359153;32;20612;-61
2022/07/11 00:32:00;;;;;;;5.28;1.80;;;16.40;99.90;;;;;;7359954;32;20103;-61
2022/07/11 00:36:02;;;;;;;3.65;1.92;;;16.30;99.90;;;;;;7360382;32;20420;-61
2022/07/11 00:40:04;;;;;;;5.37;2.22;;;16.20;99.90;;;;;;7359910;32;20198;-61
2022/07/11 00:44:06;;;;;;;5.22;1.85;;;16.10;99.90;;;;;;7359959;32;20285;-61
2022/07/11 00:48:08;;;;;;;5.57;2.28;;;15.90;99.90;;;;;;7359517;32;20505;-62
2022/07/11 00:52:10;;;;;;;6.70;2.10;;;15.80;99.90;;;;;;7360129;32;20100;-61
2022/07/11 00:56:12;;;;;;;3.28;1.83;;;15.70;99.90;;;;;;7341980;32;20170;-61
2022/07/11 01:00:14;;;;;;;2.97;2.17;;;15.60;99.90;;;;;;7359277;32;20197;-61
2022/07/11 01:04:15;;;;;;;6.37;2.80;;;15.50;99.90;;;;;;7359796;32;20123;-60
2022/07/11 01:08:18;;;;;;;5.90;2.62;;;15.50;99.90;;;;;;7359356;32;20176;-61
2022/07/11 01:12:19;;;;;;;5.15;2.62;;;15.30;99.90;;;;;;7359266;32;20114;-61
2022/07/11 01:16:22;;;;;;;5.68;2.70;;;15.10;99.90;;;;;;7359828;32;20107;-61
2022/07/11 01:20:24;;;;;;;6.50;2.65;;;15.10;99.90;;;;;;7359118;32;20191;-61
2022/07/11 01:24:26;;;;;;;9.95;3.00;;;15.00;99.90;;;;;;7359174;32;20167;-61
2022/07/11 01:28:28;;;;;;;2.92;2.15;;;14.80;99.90;;;;;;7358263;32;20115;-61
2022/07/11 01:32:29;;;;;;;4.40;2.47;;;14.80;99.90;;;;;;7357282;32;20118;-61
2022/07/11 01:36:31;;;;;;;5.85;2.28;;;14.60;99.90;;;;;;7358935;32;20146;-60
2022/07/11 01:40:33;;;;;;;7.32;2.30;;;14.50;99.90;;;;;;7357009;32;20151;-60
2022/07/11 01:44:35;;;;;;;2.53;2.05;;;14.40;99.90;;;;;;7357911;32;20116;-61
2022/07/11 01:48:37;;;;;;;8.43;2.40;;;14.30;99.90;;;;;;7358378;32;20479;-60
2022/07/11 01:52:40;;;;;;;4.03;2.50;;;14.20;99.90;;;;;;7358146;32;20256;-60
2022/07/11 01:56:41;;;;;;;8.10;2.53;;;14.20;99.90;;;;;;7350963;32;20598;-63
2022/07/11 02:00:43;;;;;;;7.95;2.55;;;14.20;99.90;;;;;;7353837;32;20187;-60
2022/07/11 02:04:45;;;;;;;2.95;2.60;;;14.10;99.90;;;;;;7358512;32;20103;-60
2022/07/11 02:08:47;;;;;;;5.18;2.90;;;14.10;99.90;;;;;;7357790;32;20123;-60
2022/07/11 02:12:49;;;;;;;5.62;2.80;;;14.00;99.90;;;;;;7357652;32;20489;-62
2022/07/11 02:16:51;;;;;;;7.50;3.30;;;14.00;99.90;;;;;;7358004;32;20481;-61
2022/07/11 02:20:52;;;;;;;3.53;2.87;;;14.00;99.90;;;;;;7356946;32;20095;-60
2022/07/11 02:24:54;;;;;;;3.47;2.83;;;14.00;99.90;;;;;;7358642;32;20182;-60
2022/07/11 02:28:57;;;;;;;4.43;2.67;;;14.00;99.90;;;;;;7357009;32;20119;-60
2022/07/11 02:32:59;;;;;;;6.60;2.78;;;14.00;99.90;;;;;;7357369;32;20182;-61
2022/07/11 02:37:01;;;;;;;5.50;3.12;;;14.00;99.90;;;;;;7357949;32;20099;-60
2022/07/11 02:41:03;;;;;;;6.07;3.28;;;14.10;99.90;;;;;;7356983;32;20148;-60
2022/07/11 02:45:07;;;;;;;6.65;3.17;;;14.10;99.90;;;;;;7349964;32;20704;-61
2022/07/11 02:49:09;;;;;;;4.25;2.80;;;14.20;99.90;;;;;;7356361;32;20590;-60
2022/07/11 02:53:11;;;;;;;5.43;3.40;;;14.30;99.90;;;;;;7358810;32;20531;-60
2022/07/11 02:57:12;;;;;;;4.97;2.97;;;14.30;99.90;;;;;;7347622;32;20583;-60
2022/07/11 03:01:14;;;;;;;5.12;3.10;;;14.40;99.90;;;;;;7361793;32;20243;-61
2022/07/11 03:05:16;;;;;;;6.32;2.80;;;14.40;99.90;;;;;;7362709;32;20103;-60
2022/07/11 03:09:18;;;;;;;5.15;2.65;;;14.40;99.90;;;;;;7361388;32;20192;-60
2022/07/11 03:13:20;;;;;;;8.40;3.47;;;14.50;99.90;;;;;;7362816;32;20164;-62
2022/07/11 03:17:22;;;;;;;6.03;3.28;;;14.60;99.90;;;;;;7361991;32;20119;-61
2022/07/11 03:21:24;;;;;;;4.93;2.92;;;14.60;99.90;;;;;;7361193;32;20585;-61
2022/07/11 03:25:26;;;;;;;4.28;2.90;;;14.60;99.90;;;;;;7362507;32;20130;-61
2022/07/11 03:29:28;;;;;;;6.78;2.58;;;14.60;99.90;;;;;;7361209;32;20540;-61
2022/07/11 03:33:29;;;;;;;4.15;2.62;;;14.60;99.90;;;;;;7361538;32;20099;-62
2022/07/11 03:37:31;;;;;;;9.27;3.35;;;14.70;99.90;;;;;;7361213;32;20168;-61
2022/07/11 03:41:33;;;;;;;7.68;3.30;;;14.60;99.90;;;;;;7360421;32;20129;-62
2022/07/11 03:45:34;;;;;;;6.35;3.05;;;14.70;99.90;;;;;;7336272;32;20566;-62
2022/07/11 03:49:36;;;;;;;6.12;3.20;;;14.70;99.90;;;;;;7342719;32;20100;-61
2022/07/11 03:53:38;;;;;;;3.92;2.65;;;14.80;99.90;;;;;;7361560;32;20178;-61
2022/07/11 03:57:40;;;;;;;5.15;2.60;;;14.90;99.90;;;;;;7347261;32;20104;-61
2022/07/11 04:01:42;;;;;;;5.12;2.17;;;14.90;99.90;;;;;;7355574;32;20568;-62
2022/07/11 04:05:44;;;;;;;5.37;2.62;;;15.00;99.90;;;;;;7360641;32;20190;-61
2022/07/11 04:09:45;;;;;;;3.47;2.17;;;15.00;99.90;;;;;;7360356;32;20182;-61
2022/07/11 04:13:47;;;;;;;5.28;2.15;;;15.10;99.90;;;;;;7361437;32;20534;-61
2022/07/11 04:17:49;;;;;;;5.12;1.80;;;15.10;99.90;;;;;;7360002;32;21104;-62
2022/07/11 04:21:51;;;;;;;4.62;1.92;;;15.20;99.90;;;;;;7361388;32;20103;-62
2022/07/11 04:25:52;;;;;;;5.53;1.80;;;15.30;99.90;;;;;;7359603;32;20439;-61
2022/07/11 04:29:54;;;;;;;3.03;1.73;;;15.30;99.90;;;;;;7359690;32;20293;-62
2022/07/11 04:33:56;;;;;;;3.40;1.20;;;15.40;99.90;;;;;;7360289;32;20552;-62
2022/07/11 04:37:57;;;;;;;3.22;1.20;;;15.50;99.90;;;;;;7359297;32;20190;-61
2022/07/11 04:42:00;;;;;;;2.70;1.20;;;15.60;99.90;;;;;;7360230;32;20123;-62
2022/07/11 04:46:04;;;;;;;4.40;1.15;;;15.80;99.90;;;;;;7360307;32;20893;-65
2022/07/11 04:50:07;;;;;;;2.03;0.80;;;15.70;99.90;;;;;;7357606;32;20135;-65
2022/07/11 04:54:09;;;;;;;1.75;0.80;;;15.90;99.90;;;;;;7351008;32;20115;-66
2022/07/11 04:58:11;;;;;;;3.33;0.80;;;15.90;99.90;;;;;;7349042;32;20160;-65
2022/07/11 05:02:13;;;;;;;1.87;0.73;;;16.00;99.90;;;;;;7360021;32;20492;-66
2022/07/11 05:06:14;;;;;;;3.53;0.90;;;16.00;99.90;;;;;;7359224;32;20222;-65
2022/07/11 05:10:16;;;;;;;2.75;0.80;;;16.10;99.90;;;;;;7357840;32;20202;-65
2022/07/11 05:14:18;;;;;;;2.70;0.73;;;16.10;99.90;;;;;;7359197;32;20472;-66
2022/07/11 05:18:20;;;;;;;0.90;0.60;;;16.20;99.90;;;;;;7358085;32;20235;-66
2022/07/11 05:22:21;;;;;;;1.42;0.75;;;16.30;99.90;;;;;;7352590;32;20131;-65
2022/07/11 05:26:23;;;;;;;1.40;0.52;;;16.30;99.90;;;;;;7357538;32;20650;-65
2022/07/11 05:30:25;;;;;;;0.90;0.50;;;16.30;99.90;;;;;;7358567;32;20606;-65
2022/07/11 05:34:27;;;;;;;1.65;0.52;;;16.30;99.90;;;;;;7359125;32;20103;-65
2022/07/11 05:38:28;;;;;;;0.50;0.50;;;16.30;99.90;;;;;;7357942;32;20166;-66
2022/07/11 05:42:31;;;;;;;1.80;0.40;;;16.40;99.90;;;;;;7357668;32;20104;-66
2022/07/11 05:46:33;;;;;;;1.10;0.52;;;16.40;99.90;;;;;;7359154;32;20611;-66
2022/07/11 05:50:35;;;;;;;1.80;0.50;;;16.40;99.90;;;;;;7358028;32;20273;-66
2022/07/11 05:54:38;;;;;;;0.93;0.35;;;16.50;99.90;;;;;;7346647;32;20131;-65
2022/07/11 05:58:40;;;;;;;0.95;0.62;;;16.50;99.90;;;;;;7351879;32;20371;-66
2022/07/11 06:02:47;;;;;;;0.62;0.40;;;16.50;99.90;;;;;;7359034;32;20535;-65
2022/07/11 06:06:52;;;;;;;0.60;0.32;;;16.50;99.90;;;;;;7358504;32;20551;-65
2022/07/11 06:10:54;;;;;;;4.32;2.10;;;16.50;99.90;;;;;;7357022;32;20570;-65
2022/07/11 06:14:57;;;;;;;0.40;0.40;;;16.50;99.90;;;;;;7358008;32;20317;-65
2022/07/11 06:18:58;;;;;;;0.40;0.40;;;16.50;99.90;;;;;;7349227;32;20187;-66
2022/07/11 06:23:00;;;;;;;2.78;0.40;;;16.50;99.90;;;;;;7345578;32;20770;-65
2022/07/11 06:27:04;;;;;;;29.87;26.62;;;16.70;99.90;;;;;;7352896;32;20608;-64
2022/07/11 06:31:06;;;;;;;6.50;4.60;;;16.60;99.90;;;;;;7362498;32;20151;-65
2022/07/11 06:35:08;;;;;;;2.15;0.60;;;16.60;99.90;;;;;;7363654;32;20343;-64
2022/07/11 06:39:10;;;;;;;2.20;0.77;;;16.60;99.90;;;;;;7362289;32;20148;-65
2022/07/11 06:43:13;;;;;;;1.48;0.80;;;16.60;99.90;;;;;;7362231;32;20134;-65
2022/07/11 06:47:14;;;;;;;1.48;0.70;;;16.60;99.90;;;;;;7362378;32;20519;-65
2022/07/11 06:51:16;;;;;;;3.05;1.10;;;16.60;99.90;;;;;;7361683;32;20104;-65
2022/07/11 06:55:18;;;;;;;1.73;1.30;;;16.60;99.90;;;;;;7346643;32;20485;-65
2022/07/11 06:59:19;;;;;;;2.12;1.65;;;16.60;99.90;;;;;;7360383;32;20123;-65
2022/07/11 07:03:21;;;;;;;2.85;0.82;;;16.60;99.90;;;;;;7362608;32;20137;-65
2022/07/11 07:07:23;;;;;;;1.75;1.00;;;16.60;99.90;;;;;;7362096;32;20103;-65
2022/07/11 07:11:25;;;;;;;2.37;1.08;;;16.60;99.90;;;;;;7362510;32;20460;-65
2022/07/11 07:15:28;;;;;;;2.67;1.52;;;16.70;99.90;;;;;;7362057;32;20107;-64
2022/07/11 07:19:30;;;;;;;2.70;1.50;;;16.60;99.90;;;;;;7361320;32;20430;-65
2022/07/11 07:23:32;;;;;;;1.80;1.02;;;16.70;99.90;;;;;;7361320;32;20108;-65
2022/07/11 07:27:34;;;;;;;4.87;1.10;;;16.70;99.90;;;;;;7361549;32;20431;-65
2022/07/11 07:31:35;;;;;;;2.45;0.98;;;16.60;99.90;;;;;;7361956;32;20266;-66
2022/07/11 07:35:37;;;;;;;2.75;1.20;;;16.70;99.90;;;;;;7361968;32;20104;-65
2022/07/11 07:39:39;;;;;;;3.50;0.90;;;16.70;99.90;;;;;;7360683;32;20119;-65
2022/07/11 07:43:41;;;;;;;1.40;0.75;;;16.60;99.90;;;;;;7361440;32;20107;-65
2022/07/11 07:47:43;;;;;;;5.57;1.00;;;16.70;99.90;;;;;;7359644;32;20174;-65
2022/07/11 07:51:45;;;;;;;1.60;0.82;;;16.80;99.90;;;;;;7360820;32;20217;-65
2022/07/11 07:55:47;;;;;;;1.70;1.10;;;16.80;99.90;;;;;;7343606;32;20096;-65
2022/07/11 07:59:49;;;;;;;4.37;1.62;;;16.80;99.90;;;;;;7360028;32;20266;-65
2022/07/11 08:03:51;;;;;;;4.68;2.33;;;16.90;99.90;;;;;;7361384;32;20779;-65
2022/07/11 08:07:52;;;;;;;4.62;2.97;;;16.90;99.90;;;;;;7360262;32;20129;-66
2022/07/11 08:11:54;;;;;;;3.17;2.65;;;17.00;99.90;;;;;;7361079;32;20868;-65
2022/07/11 08:15:56;;;;;;;4.53;3.03;;;17.20;99.90;;;;;;7360680;32;20125;-66
2022/07/11 08:19:58;;;;;;;5.15;3.12;;;17.30;99.90;;;;;;7359900;32;20223;-65
2022/07/11 08:24:01;;;;;;;6.50;4.55;;;17.40;99.90;;;;;;7360063;32;20507;-65
2022/07/11 08:28:03;;;;;;;7.32;5.20;;;17.60;99.90;;;;;;7359511;32;20498;-66
2022/07/11 08:32:05;;;;;;;7.25;5.80;;;17.70;99.90;;;;;;7360502;32;20168;-65
2022/07/11 08:36:07;;;;;;;6.37;5.37;;;17.70;99.90;;;;;;7360971;32;20100;-65
2022/07/11 08:40:09;;;;;;;12.75;10.52;;;17.80;99.90;;;;;;7358939;32;20187;-66
2022/07/11 08:44:15;;;;;;;18.73;16.83;;;17.80;99.90;;;;;;7360150;32;20495;-64
2022/07/11 08:48:19;;;;;;;20.70;18.55;;;18.00;99.90;;;;;;7359026;32;20125;-65
2022/07/11 08:52:22;;;;;;;20.02;17.65;;;18.00;99.90;;;;;;7359966;32;20141;-65
2022/07/11 08:56:27;;;;;;;18.80;14.93;;;18.40;99.90;;;;;;7341723;32;20148;-65
2022/07/11 09:00:29;;;;;;;21.02;15.82;;;18.70;99.90;;;;;;7358634;32;20115;-65
2022/07/11 09:04:30;;;;;;;14.65;13.00;;;18.50;99.90;;;;;;7359632;32;20488;-66
2022/07/11 09:08:33;;;;;;;15.45;13.20;;;18.70;99.90;;;;;;7357933;32;20119;-66
2022/07/11 09:12:34;;;;;;;7.00;6.30;;;18.80;99.90;;;;;;7359400;32;20127;-66
2022/07/11 09:16:52;;;;;;;8.35;6.55;;;19.00;99.90;;;;;;7359526;32;20197;-66
2022/07/11 09:25:31;;;;;;;4.62;3.60;;;18.90;99.90;;;;;;7333549;32;20264;-65
2022/07/11 09:29:33;;;;;;;3.67;3.10;;;19.00;99.90;;;;;;7331256;32;20153;-65
2022/07/11 09:33:37;;;;;;;6.65;5.40;;;19.20;99.90;;;;;;7353822;32;20187;-65
2022/07/11 09:37:43;;;;;;;7.82;6.22;;;19.20;99.90;;;;;;7358450;32;20107;-66
2022/07/11 09:41:47;;;;;;;6.18;5.60;;;19.40;99.90;;;;;;7359281;32;20103;-65
2022/07/11 09:45:48;;;;;;;8.30;5.57;;;19.80;99.90;;;;;;7358017;32;20286;-65
2022/07/11 09:49:50;;;;;;;5.15;4.00;;;19.70;99.90;;;;;;7358116;32;20139;-65
2022/07/11 09:53:57;;;;;;;4.78;4.28;;;19.70;99.90;;;;;;7351793;32;20112;-65
2022/07/11 09:58:02;;;;;;;7.28;5.75;;;19.80;99.90;;;;;;7346877;32;20558;-66
2022/07/11 10:02:24;;;;;;;7.35;6.55;;;19.60;99.90;;;;;;7357465;32;20719;-65
2022/07/11 10:06:26;;;;;;;8.07;5.82;;;19.50;99.90;;;;;;7356824;32;20221;-66
2022/07/11 10:10:36;;;;;;;5.78;5.28;;;19.60;99.90;;;;;;7358257;32;20215;-66
2022/07/11 10:14:42;;;;;;;8.63;5.22;;;19.70;99.90;;;;;;7358012;32;20092;-66
2022/07/11 10:18:56;;;;;;;6.78;5.00;;;19.50;99.90;;;;;;7355483;32;20503;-66
2022/07/11 10:23:22;;;;;;;6.87;5.60;;;19.50;99.90;;;;;;7358562;32;20122;-66
2022/07/11 10:27:36;;;;;;;6.32;4.25;;;19.60;99.90;;;;;;7357677;32;20103;-66
2022/07/11 10:32:07;;;;;;;5.40;3.20;;;19.40;99.90;;;;;;7357906;32;20653;-67
2022/07/11 10:36:29;;;;;;;5.03;2.90;;;19.40;99.90;;;;;;7358530;32;20184;-67
2022/07/11 10:40:57;;;;;;;5.90;5.05;;;19.30;99.90;;;;;;7357614;32;20128;-66
2022/07/11 10:44:59;;;;;;;7.60;6.00;;;19.20;99.90;;;;;;7357935;32;20149;-66
2022/07/11 10:49:00;;;;;;;7.10;4.95;;;19.30;99.90;;;;;;7357198;32;20182;-66
2022/07/11 10:53:11;;;;;;;6.03;4.80;;;19.30;99.90;;;;;;7358347;32;20119;-66
2022/07/11 10:57:46;;;;;;;7.32;4.50;;;19.20;99.90;;;;;;7346105;32;20513;-66
2022/07/11 11:02:12;;;;;;;7.30;5.60;;;19.20;99.90;;;;;;7332599;32;20130;-65
2022/07/11 11:06:20;;;;;;;5.07;4.25;;;19.30;99.90;;;;;;7342040;32;20096;-66
2022/07/11 11:10:33;;;;;;;6.03;4.62;;;19.40;99.90;;;;;;7357513;32;20099;-66
2022/07/11 11:14:35;;;;;;;7.40;5.05;;;19.30;99.90;;;;;;7362061;32;20119;-66
2022/07/11 11:18:41;;;;;;;7.47;6.00;;;19.50;99.90;;;;;;7361939;32;20198;-66
2022/07/11 11:23:09;;;;;;;13.03;9.27;;;19.60;99.90;;;;;;7362715;32;20777;-66
2022/07/11 11:27:19;;;;;;;;;;;19.90;99.90;;;;;;7362579;32;20162;-66
2022/07/11 11:31:21;;;;;;;10.27;8.90;;;20.00;99.90;;;;;;7361762;32;20151;-66
2022/07/11 11:35:23;;;;;;;9.70;8.48;;;20.30;99.90;;;;;;7361478;32;20107;-66
2022/07/11 11:39:35;;;;;;;10.68;7.75;;;19.90;99.90;;;;;;7360497;32;20125;-66
2022/07/11 11:43:37;;;;;;;8.43;7.62;;;19.70;99.90;;;;;;7361897;32;20194;-64
2022/07/11 11:47:50;;;;;;;8.43;6.78;;;19.80;99.90;;;;;;7361491;32;20493;-65
2022/07/11 11:51:56;;;;;;;9.77;8.50;;;19.80;99.90;;;;;;7361536;32;20508;-65
2022/07/11 11:55:58;;;;;;;9.02;8.05;;;20.10;99.90;;;;;;7353109;32;20168;-65
2022/07/11 11:59:59;;;;;;;11.20;8.48;;;20.00;99.90;;;;;;7335592;32;20178;-67
2022/07/11 12:04:05;;;;;;;11.12;9.88;;;20.00;99.90;;;;;;7338271;32;20198;-65
2022/07/11 12:08:07;;;;;;;10.40;9.35;;;19.90;99.90;;;;;;7360731;32;20138;-65
2022/07/11 12:16:41;;;;;;;15.05;13.43;;;19.90;99.90;;;;;;7361074;32;20119;-66
2022/07/11 12:20:50;;;;;;;17.48;14.27;;;19.80;99.90;;;;;;7360311;32;20108;-66
2022/07/11 12:24:53;;;;;;;15.77;14.20;;;20.00;99.90;;;;;;7359162;32;20095;-65
2022/07/11 12:29:23;;;;;;;18.23;16.52;;;20.00;99.90;;;;;;7359681;32;20666;-65
2022/07/11 12:33:25;;;;;;;18.52;16.83;;;20.00;99.90;;;;;;7359315;32;20107;-66
2022/07/11 12:37:37;;;;;;;19.67;17.80;;;20.10;99.90;;;;;;7359794;32;20218;-65
2022/07/11 12:41:39;;;;;;;17.75;16.15;;;20.40;99.90;;;;;;7358788;32;20111;-66
2022/07/11 12:45:41;;;;;;;17.23;15.63;;;20.40;99.90;;;;;;7358424;32;20107;-65
2022/07/11 12:49:46;;;;;;;16.37;13.57;;;20.60;99.90;;;;;;7358870;32;20104;-66
2022/07/11 12:53:48;;;;;;;13.55;12.25;;;20.70;99.90;;;;;;7359712;32;20099;-65
2022/07/11 12:58:06;;;;;;;12.32;9.93;;;20.80;99.90;;;;;;7343544;32;20177;-66
2022/07/11 13:02:12;;;;;;;10.70;9.68;;;20.70;99.90;;;;;;7334533;32;20495;-66
2022/07/11 13:06:15;;;;;;;10.60;9.57;;;20.70;99.90;;;;;;7347982;32;20104;-66
2022/07/11 13:10:23;;;;;;;10.25;9.25;;;20.50;99.90;;;;;;7358792;32;20175;-66
2022/07/11 13:15:08;;;;;;;11.43;10.35;;;20.80;99.90;;;;;;7358868;32;20150;-66
2022/07/11 13:19:04;;;;;;;8.48;7.60;;;20.80;99.90;;;;;;7358909;32;20122;-66
2022/07/11 13:23:07;;;;;;;11.38;9.38;;;21.10;99.90;;;;;;7358931;32;20174;-66
2022/07/11 13:27:16;;;;;;;12.15;10.95;;;21.10;99.90;;;;;;7358722;32;20099;-67
2022/07/11 13:31:18;;;;;;;12.10;10.85;;;21.30;99.90;;;;;;7358487;32;20099;-66
2022/07/11 13:35:19;;;;;;;10.50;9.43;;;21.30;99.90;;;;;;7358662;32;20129;-66
2022/07/11 13:39:21;;;;;;;12.50;9.05;;;21.30;99.90;;;;;;7356500;32;20963;-66
2022/07/11 13:43:23;;;;;;;10.40;9.40;;;21.20;99.90;;;;;;7358701;32;20123;-67
2022/07/11 13:47:25;;;;;;;12.35;9.43;;;21.40;99.90;;;;;;7358294;32;20111;-65
2022/07/11 13:51:26;;;;;;;12.85;9.93;;;21.30;99.90;;;;;;7357873;32;20249;-65
2022/07/11 13:55:29;;;;;;;12.52;10.60;;;21.00;99.90;;;;;;7358286;32;20157;-67
2022/07/11 13:59:31;;;;;;;10.07;9.15;;;21.00;99.90;;;;;;7332162;32;20152;-65
2022/07/11 14:03:33;;;;;;;7.53;6.72;;;21.10;99.90;;;;;;7338982;32;20112;-66
2022/07/11 14:07:36;;;;;;;7.45;6.65;;;21.20;99.90;;;;;;7356811;32;20139;-65
2022/07/11 14:11:38;;;;;;;24.85;21.48;;;21.20;99.90;;;;;;7358084;32;20213;-66
2022/07/11 14:15:41;;;;;;;7.35;5.40;;;21.10;99.90;;;;;;7357917;32;20172;-65
2022/07/11 14:19:42;;;;;;;8.05;5.70;;;20.90;99.90;;;;;;7357735;32;20104;-65
2022/07/11 14:23:45;;;;;;;7.47;4.75;;;20.80;99.90;;;;;;7358448;32;20107;-66
2022/07/11 14:27:47;;;;;;;5.07;4.57;;;20.70;99.90;;;;;;7357961;32;20175;-66
2022/07/11 14:31:54;;;;;;;5.30;4.80;;;20.60;99.90;;;;;;7356452;32;20604;-66
2022/07/11 14:35:56;;;;;;;7.00;5.82;;;20.60;99.90;;;;;;7358305;32;20156;-66
2022/07/11 14:39:58;;;;;;;6.53;5.93;;;20.50;99.90;;;;;;7357337;32;20562;-66
2022/07/11 14:44:00;;;;;;;7.00;6.28;;;20.60;99.90;;;;;;7357520;32;20238;-66
2022/07/11 14:48:03;;;;;;;6.43;5.82;;;20.70;99.90;;;;;;7358897;32;20135;-66
2022/07/11 14:52:05;;;;;;;8.82;7.47;;;20.70;99.90;;;;;;7363278;32;20152;-66
2022/07/11 14:56:07;;;;;;;8.60;7.50;;;20.60;99.90;;;;;;7345517;32;20210;-66
2022/07/11 15:00:30;;;;;;;9.98;7.35;;;20.60;99.90;;;;;;7362296;32;20119;-66
2022/07/11 15:04:39;;;;;;;8.75;7.85;;;20.60;99.90;;;;;;7362881;32;20099;-66
2022/07/11 15:13:07;;;;;;;8.93;8.07;;;20.50;99.90;;;;;;7362307;32;20218;-66
2022/07/11 15:17:09;;;;;;;8.60;7.80;;;20.50;99.90;;;;;;7362040;32;20550;-66
2022/07/11 15:21:11;;;;;;;9.27;7.72;;;20.70;99.90;;;;;;7361354;32;20103;-66
2022/07/11 15:25:15;;;;;;;9.45;8.55;;;21.20;99.90;;;;;;7362571;32;20107;-66
2022/07/11 15:29:16;;;;;;;10.55;9.60;;;21.70;99.90;;;;;;7361947;32;20095;-66
2022/07/11 15:33:18;;;;;;;10.85;9.93;;;21.80;99.90;;;;;;7361847;32;20148;-67
2022/07/11 15:37:20;;;;;;;10.80;9.80;;;21.90;99.90;;;;;;7362183;32;20450;-67
2022/07/11 15:41:22;;;;;;;13.55;12.15;;;22.00;99.90;;;;;;7361444;32;20107;-68
2022/07/11 15:45:25;;;;;;;13.82;11.95;;;21.70;99.90;;;;;;7361643;32;20115;-67
2022/07/11 15:49:28;;;;;;;13.57;12.27;;;21.70;99.90;;;;;;7361034;32;20477;-67
2022/07/11 15:53:30;;;;;;;14.15;12.02;;;21.20;99.90;;;;;;7361096;32;20534;-66
2022/07/11 15:57:31;;;;;;;11.98;10.50;;;21.20;99.90;;;;;;7360928;32;20103;-65
2022/07/11 16:01:34;;;;;;;11.48;10.48;;;21.10;99.90;;;;;;7361132;32;20143;-66
2022/07/11 16:05:37;;;;;;;11.12;10.02;;;21.40;99.90;;;;;;7360756;32;20095;-67
2022/07/11 16:09:38;;;;;;;9.98;9.07;;;21.10;99.90;;;;;;7358648;32;20177;-68
2022/07/11 16:13:40;;;;;;;8.88;7.90;;;21.20;99.90;;;;;;7361390;32;20121;-67
2022/07/11 16:17:43;;;;;;;10.18;9.18;;;21.00;99.90;;;;;;7360704;32;20119;-66
2022/07/11 16:21:45;;;;;;;10.07;8.52;;;20.90;99.90;;;;;;7360823;32;20543;-66
2022/07/11 16:25:47;;;;;;;9.18;8.38;;;20.80;99.90;;;;;;7360694;32;20103;-66
2022/07/11 16:29:49;;;;;;;8.70;8.00;;;20.70;99.90;;;;;;7360186;32;20175;-66
2022/07/11 16:33:58;;;;;;;9.25;8.35;;;20.50;99.90;;;;;;7361045;32;20095;-66
2022/07/11 16:38:00;;;;;;;8.57;7.68;;;20.70;99.90;;;;;;7359697;32;20193;-66
2022/07/11 16:46:23;;;;;;;7.68;6.87;;;20.90;99.90;;;;;;7360360;32;20141;-65
2022/07/11 16:50:25;;;;;;;7.25;6.55;;;21.00;99.90;;;;;;7359636;32;20594;-66
2022/07/11 16:54:40;;;;;;;8.00;7.18;;;21.10;99.90;;;;;;7359718;32;20212;-65
2022/07/11 16:58:42;;;;;;;9.50;8.43;;;21.30;99.90;;;;;;7339320;32;20413;-66
2022/07/11 17:02:43;;;;;;;5.68;4.15;;;21.50;99.90;;;;;;7338559;32;20142;-65
2022/07/11 17:06:48;;;;;;;5.05;4.03;;;21.70;99.90;;;;;;7360354;32;20204;-66
2022/07/11 17:10:50;;;;;;;4.28;3.72;;;21.70;99.90;;;;;;7358857;32;20099;-65
2022/07/11 17:14:52;;;;;;;3.97;3.53;;;21.80;99.90;;;;;;7359549;32;20502;-66
2022/07/11 17:18:54;;;;;;;4.37;3.00;;;21.60;99.90;;;;;;7359135;32;20178;-66
2022/07/11 17:22:56;;;;;;;3.75;2.30;;;21.50;99.90;;;;;;7359097;32;20294;-66
2022/07/11 17:26:58;;;;;;;1.73;1.00;;;21.30;99.90;;;;;;7359208;32;20250;-65
2022/07/11 17:31:00;;;;;;;2.28;0.82;;;21.10;99.90;;;;;;7358654;32;20155;-66
2022/07/11 17:35:03;;;;;;;2.40;0.75;;;20.90;99.90;;;;;;7359244;32;20130;-66
2022/07/11 17:39:05;;;;;;;1.23;0.90;;;20.80;99.90;;;;;;7357323;32;20195;-66
2022/07/11 17:43:08;;;;;;;2.03;0.60;;;20.80;99.90;;;;;;7358232;32;20745;-65
2022/07/11 17:47:10;;;;;;;1.25;0.88;;;20.90;99.90;;;;;;7358625;32;20552;-66
2022/07/11 17:51:12;;;;;;;2.65;0.90;;;20.90;99.90;;;;;;7358141;32;20111;-65
2022/07/11 17:55:24;;;;;;;2.17;1.25;;;20.90;99.90;;;;;;7358554;32;20103;-66
2022/07/11 17:59:26;;;;;;;0.70;0.65;;;21.00;99.90;;;;;;7333322;32;20256;-66
2022/07/11 18:03:28;;;;;;;2.78;0.90;;;21.40;99.90;;;;;;7339800;32;20254;-66
2022/07/11 18:07:30;;;;;;;1.15;0.70;;;21.30;99.90;;;;;;7358167;32;20104;-65
2022/07/11 18:11:34;;;;;;;0.60;0.50;;;21.30;99.90;;;;;;7357169;32;20099;-65
2022/07/11 18:15:36;;;;;;;4.22;0.70;;;21.30;99.90;;;;;;7357502;32;20103;-65
2022/07/11 18:19:38;;;;;;;0.80;0.70;;;21.30;99.90;;;;;;7357165;32;20277;-65
2022/07/11 18:23:40;;;;;;;1.77;0.80;;;21.20;99.90;;;;;;7357267;32;20114;-65
2022/07/11 18:27:42;;;;;;;1.58;0.73;;;21.10;99.90;;;;;;7356912;32;20483;-65
2022/07/11 18:31:44;;;;;;;1.27;0.88;;;20.90;99.90;;;;;;7357645;32;20095;-66
2022/07/11 18:35:46;;;;;;;6.05;4.87;;;20.70;99.90;;;;;;7358290;32;20129;-65
2022/07/11 18:44:08;;;;;;;1.92;1.35;;;20.20;99.90;;;;;;7358098;32;20823;-66
2022/07/11 18:48:16;;;;;;;6.03;3.72;;;19.90;99.90;;;;;;7356166;32;20117;-66
2022/07/11 18:52:23;;;;;;;8.45;5.15;;;19.90;99.90;;;;;;7358727;32;20107;-67
2022/07/11 18:56:28;;;;;;;1.50;1.33;;;19.70;99.90;;;;;;7340063;32;20201;-67
2022/07/11 19:00:29;;;;;;;2.72;1.30;;;19.40;99.90;;;;;;7357112;32;20112;-66
2022/07/11 19:04:31;;;;;;;2.03;1.20;;;19.20;99.90;;;;;;7358344;32;20668;-67
2022/07/11 19:08:33;;;;;;;1.73;1.10;;;18.90;99.90;;;;;;7357689;32;20830;-67
2022/07/11 19:12:35;;;;;;;3.47;1.35;;;18.70;99.90;;;;;;7358057;32;20115;-67
2022/07/11 19:16:37;;;;;;;2.90;1.33;;;18.40;99.90;;;;;;7358555;32;20107;-67
2022/07/11 19:20:42;;;;;;;4.37;1.52;;;18.20;99.90;;;;;;7356763;32;20590;-67
2022/07/11 19:24:45;;;;;;;7.90;3.22;;;18.10;99.90;;;;;;7358303;32;20123;-67
2022/07/11 19:28:47;;;;;;;2.47;1.30;;;17.90;99.90;;;;;;7357477;32;20096;-66
2022/07/11 19:32:49;;;;;;;1.55;0.95;;;17.70;99.90;;;;;;7357595;32;20246;-67
2022/07/11 19:36:50;;;;;;;2.28;1.35;;;17.60;99.90;;;;;;7361443;32;20123;-66
2022/07/11 19:40:56;;;;;;;2.85;1.12;;;17.40;99.90;;;;;;7361550;32;20447;-67
2022/07/11 19:44:58;;;;;;;2.17;1.20;;;17.30;99.90;;;;;;7362676;32;20551;-66
2022/07/11 19:49:01;;;;;;;3.65;1.10;;;17.20;99.90;;;;;;7361365;32;20164;-67
2022/07/11 19:53:03;;;;;;;2.17;1.10;;;17.10;99.90;;;;;;7360563;32;20182;-66
2022/07/11 19:57:23;;;;;;;3.35;1.08;;;16.90;99.90;;;;;;7352552;32;20127;-62
2022/07/11 20:01:25;;;;;;;1.40;0.90;;;16.80;99.90;;;;;;7348773;32;20160;-62
2022/07/11 20:05:27;;;;;;;3.08;1.17;;;16.60;99.90;;;;;;7361839;32;20741;-61
2022/07/11 20:09:29;;;;;;;1.20;1.00;;;16.50;99.90;;;;;;7361054;32;20765;-62
2022/07/11 20:13:31;;;;;;;1.90;1.40;;;16.40;99.90;;;;;;7361673;32;20103;-62
2022/07/11 20:17:33;;;;;;;4.60;1.12;;;16.30;99.90;;;;;;7361535;32;20103;-62
2022/07/11 20:21:34;;;;;;;1.75;1.12;;;16.20;99.90;;;;;;7361254;32;20206;-62
2022/07/11 20:25:36;;;;;;;2.33;0.90;;;16.10;99.90;;;;;;7361326;32;20153;-62
2022/07/11 20:29:38;;;;;;;2.28;0.98;;;16.10;99.90;;;;;;7360216;32;20127;-62
2022/07/11 20:33:41;;;;;;;3.05;1.08;;;16.00;99.90;;;;;;7362018;32;20100;-62
2022/07/11 20:37:43;;;;;;;2.20;1.15;;;15.90;99.90;;;;;;7360694;32;20118;-62
2022/07/11 20:41:45;;;;;;;3.00;1.20;;;15.70;99.90;;;;;;7360932;32;20533;-63
2022/07/11 20:46:08;;;;;;;1.10;1.00;;;15.70;99.90;;;;;;7360851;32;20099;-61
2022/07/11 20:50:17;;;;;;;2.15;1.12;;;15.50;99.90;;;;;;7360639;32;20126;-62
2022/07/11 20:54:19;;;;;;;5.30;1.23;;;15.50;99.90;;;;;;7352316;32;20187;-62
2022/07/11 20:58:25;;;;;;;1.75;1.15;;;15.40;99.90;;;;;;7352187;32;20095;-63
2022/07/11 21:02:26;;;;;;;2.25;1.23;;;15.30;99.90;;;;;;7360627;32;20123;-62
2022/07/11 21:06:29;;;;;;;2.72;1.10;;;15.20;99.90;;;;;;7361347;32;20538;-62
2022/07/11 21:10:30;;;;;;;3.62;1.10;;;15.10;99.90;;;;;;7359771;32;20125;-62
2022/07/11 21:14:32;;;;;;;1.00;0.90;;;15.10;99.90;;;;;;7360624;32;20565;-61
2022/07/11 21:18:35;;;;;;;2.65;1.17;;;15.10;99.90;;;;;;7359995;32;20133;-61
2022/07/11 21:22:37;;;;;;;1.90;1.70;;;15.00;99.90;;;;;;7360714;32;20122;-60
2022/07/11 21:26:38;;;;;;;1.50;1.08;;;14.90;99.90;;;;;;7360448;32;20278;-63
2022/07/11 21:30:40;;;;;;;4.90;1.02;;;14.90;99.90;;;;;;7358782;32;20566;-63